Barter Island LRRS Airport Barter Island Lrrs US
ICAO: PABA
IATA:
Category: Medium
Scheduled Services:

Elevation: 2 ft
TransAlt. 18000 ft.

Airport Communications:
AWOS 3:30.8
ANCHORAGE CNTR:120.6
CTAF:126.2
DEADHORSE RDO:122
RDO:126.2

PABA Zoom In..

Runways:

(A) RW 07 length 4818 ft width 100 ft
---- / hdg 66

(B) RW 25 length 4818 ft width 100 ft
---- / hdg 246

Location; PABA
Day. 04 / Time. 01.01 Zulu
* Altimeter: 29.47
* Temperature: -10° c. -14°f.
* Wind from: 270° Speed 38 kn with Gusts up to 47 kn.
Dewpoint: -12° c.
Visibility: 1 Statute Miles.
Clouds: Few 1900 ft.
Clouds: Overcast 7500 ft.
Conditions: Light Snow.Conditions: Mist.

PABA 040101Z AUTO 27038G47KT 1SM -SN BR FEW019 OVC075 M10/M12 A2947 RMK AO2 PK WND 27046/0053 P0000 FZRANO

Going to: --> -->


Wind From 270°
Speed 38 kn.

 
 
jpsmedia worldairports.se 2020   terms of use